sensor_id;sensor_type;location;lat;lon;timestamp;P1;durP1;ratioP1;P2;durP2;ratioP2
17261;SDS011;9873;52.236;21.002;2023-12-29T00:05:21;12.33;;;5.73;;
17261;SDS011;9873;52.236;21.002;2023-12-29T00:15:26;9.67;;;4.70;;
17261;SDS011;9873;52.236;21.002;2023-12-29T00:25:39;7.57;;;4.73;;
17261;SDS011;9873;52.236;21.002;2023-12-29T00:35:41;8.33;;;5.10;;
17261;SDS011;9873;52.236;21.002;2023-12-29T00:45:44;9.07;;;5.10;;
17261;SDS011;9873;52.236;21.002;2023-12-29T00:55:51;8.13;;;5.37;;
17261;SDS011;9873;52.236;21.002;2023-12-29T01:05:56;8.43;;;5.07;;
17261;SDS011;9873;52.236;21.002;2023-12-29T01:16:01;6.87;;;4.60;;
17261;SDS011;9873;52.236;21.002;2023-12-29T01:26:06;8.27;;;4.23;;
17261;SDS011;9873;52.236;21.002;2023-12-29T01:36:17;9.27;;;5.10;;
17261;SDS011;9873;52.236;21.002;2023-12-29T01:46:29;7.80;;;4.40;;
17261;SDS011;9873;52.236;21.002;2023-12-29T01:56:33;7.03;;;4.40;;
17261;SDS011;9873;52.236;21.002;2023-12-29T02:06:39;7.20;;;5.17;;
17261;SDS011;9873;52.236;21.002;2023-12-29T02:27:05;12.03;;;5.47;;
17261;SDS011;9873;52.236;21.002;2023-12-29T02:37:18;8.17;;;4.83;;
17261;SDS011;9873;52.236;21.002;2023-12-29T02:47:28;11.37;;;6.37;;
17261;SDS011;9873;52.236;21.002;2023-12-29T02:57:36;13.10;;;6.73;;
17261;SDS011;9873;52.236;21.002;2023-12-29T03:07:39;11.00;;;6.57;;
17261;SDS011;9873;52.236;21.002;2023-12-29T03:17:48;11.03;;;6.63;;
17261;SDS011;9873;52.236;21.002;2023-12-29T03:27:53;12.37;;;6.93;;
17261;SDS011;9873;52.236;21.002;2023-12-29T03:37:56;14.27;;;7.33;;
17261;SDS011;9873;52.236;21.002;2023-12-29T03:48:01;11.10;;;6.93;;
17261;SDS011;9873;52.236;21.002;2023-12-29T03:58:08;14.20;;;8.67;;
17261;SDS011;9873;52.236;21.002;2023-12-29T04:08:13;12.63;;;8.13;;
17261;SDS011;9873;52.236;21.002;2023-12-29T04:18:15;12.80;;;7.03;;
17261;SDS011;9873;52.236;21.002;2023-12-29T04:28:19;13.40;;;6.73;;
17261;SDS011;9873;52.236;21.002;2023-12-29T04:38:21;13.37;;;7.90;;
17261;SDS011;9873;52.236;21.002;2023-12-29T04:48:24;13.27;;;8.10;;
17261;SDS011;9873;52.236;21.002;2023-12-29T04:58:30;8.57;;;5.67;;
17261;SDS011;9873;52.236;21.002;2023-12-29T05:08:32;15.20;;;8.90;;
17261;SDS011;9873;52.236;21.002;2023-12-29T05:18:41;14.53;;;7.77;;
17261;SDS011;9873;52.236;21.002;2023-12-29T05:28:45;12.83;;;8.03;;
17261;SDS011;9873;52.236;21.002;2023-12-29T05:38:52;13.57;;;8.07;;
17261;SDS011;9873;52.236;21.002;2023-12-29T05:48:55;12.33;;;7.03;;
17261;SDS011;9873;52.236;21.002;2023-12-29T05:58:59;10.63;;;5.97;;
17261;SDS011;9873;52.236;21.002;2023-12-29T06:09:02;7.97;;;5.30;;
17261;SDS011;9873;52.236;21.002;2023-12-29T06:19:06;4.53;;;3.50;;
17261;SDS011;9873;52.236;21.002;2023-12-29T06:29:12;8.20;;;5.30;;
17261;SDS011;9873;52.236;21.002;2023-12-29T06:39:17;8.07;;;5.23;;
17261;SDS011;9873;52.236;21.002;2023-12-29T06:49:20;9.67;;;5.13;;
17261;SDS011;9873;52.236;21.002;2023-12-29T06:59:23;7.77;;;5.13;;
17261;SDS011;9873;52.236;21.002;2023-12-29T07:09:26;12.70;;;5.10;;
17261;SDS011;9873;52.236;21.002;2023-12-29T07:19:32;8.67;;;5.20;;
17261;SDS011;9873;52.236;21.002;2023-12-29T07:29:39;8.50;;;5.87;;
17261;SDS011;9873;52.236;21.002;2023-12-29T07:39:42;10.63;;;5.37;;
17261;SDS011;9873;52.236;21.002;2023-12-29T07:49:44;11.07;;;6.60;;
17261;SDS011;9873;52.236;21.002;2023-12-29T07:59:50;13.17;;;7.27;;
17261;SDS011;9873;52.236;21.002;2023-12-29T08:09:56;11.20;;;6.17;;
17261;SDS011;9873;52.236;21.002;2023-12-29T08:20:02;7.07;;;4.27;;
17261;SDS011;9873;52.236;21.002;2023-12-29T08:30:07;14.03;;;7.20;;
17261;SDS011;9873;52.236;21.002;2023-12-29T08:40:10;12.23;;;6.17;;
17261;SDS011;9873;52.236;21.002;2023-12-29T08:50:16;12.47;;;6.77;;
17261;SDS011;9873;52.236;21.002;2023-12-29T09:00:20;9.37;;;5.93;;
17261;SDS011;9873;52.236;21.002;2023-12-29T09:10:28;9.53;;;5.67;;
17261;SDS011;9873;52.236;21.002;2023-12-29T09:20:34;8.03;;;5.37;;
17261;SDS011;9873;52.236;21.002;2023-12-29T09:30:36;7.27;;;4.63;;
17261;SDS011;9873;52.236;21.002;2023-12-29T09:40:40;5.77;;;4.23;;
17261;SDS011;9873;52.236;21.002;2023-12-29T09:50:53;9.33;;;4.47;;
17261;SDS011;9873;52.236;21.002;2023-12-29T10:00:58;6.73;;;4.47;;
17261;SDS011;9873;52.236;21.002;2023-12-29T10:11:03;5.30;;;3.53;;
17261;SDS011;9873;52.236;21.002;2023-12-29T10:21:11;7.32;;;3.55;;
17261;SDS011;9873;52.236;21.002;2023-12-29T10:31:28;4.70;;;3.30;;
17261;SDS011;9873;52.236;21.002;2023-12-29T10:41:34;5.05;;;3.35;;
17261;SDS011;9873;52.236;21.002;2023-12-29T10:51:39;5.60;;;3.75;;
17261;SDS011;9873;52.236;21.002;2023-12-29T11:01:47;5.45;;;3.78;;
17261;SDS011;9873;52.236;21.002;2023-12-29T11:11:55;7.25;;;3.88;;
17261;SDS011;9873;52.236;21.002;2023-12-29T11:22:03;7.18;;;3.60;;
17261;SDS011;9873;52.236;21.002;2023-12-29T11:43:00;7.93;;;4.03;;
17261;SDS011;9873;52.236;21.002;2023-12-29T11:53:07;7.68;;;4.05;;
17261;SDS011;9873;52.236;21.002;2023-12-29T12:03:18;6.32;;;4.03;;
17261;SDS011;9873;52.236;21.002;2023-12-29T12:13:44;6.40;;;3.42;;
17261;SDS011;9873;52.236;21.002;2023-12-29T12:23:49;5.72;;;3.70;;
17261;SDS011;9873;52.236;21.002;2023-12-29T12:33:57;7.00;;;3.90;;
17261;SDS011;9873;52.236;21.002;2023-12-29T12:54:22;7.88;;;4.13;;
17261;SDS011;9873;52.236;21.002;2023-12-29T13:04:28;7.30;;;4.40;;
17261;SDS011;9873;52.236;21.002;2023-12-29T13:14:30;6.82;;;3.88;;
17261;SDS011;9873;52.236;21.002;2023-12-29T13:24:45;9.10;;;4.15;;
17261;SDS011;9873;52.236;21.002;2023-12-29T13:34:52;5.45;;;3.08;;
17261;SDS011;9873;52.236;21.002;2023-12-29T13:45:14;10.50;;;4.07;;
17261;SDS011;9873;52.236;21.002;2023-12-29T13:55:22;6.93;;;3.88;;
17261;SDS011;9873;52.236;21.002;2023-12-29T14:05:35;6.88;;;3.75;;
17261;SDS011;9873;52.236;21.002;2023-12-29T14:15:39;10.55;;;3.70;;
17261;SDS011;9873;52.236;21.002;2023-12-29T14:25:44;6.15;;;3.42;;
17261;SDS011;9873;52.236;21.002;2023-12-29T14:35:54;7.38;;;3.80;;
17261;SDS011;9873;52.236;21.002;2023-12-29T14:45:59;5.68;;;2.80;;
17261;SDS011;9873;52.236;21.002;2023-12-29T14:56:04;8.97;;;3.87;;
17261;SDS011;9873;52.236;21.002;2023-12-29T15:06:14;7.28;;;4.35;;
17261;SDS011;9873;52.236;21.002;2023-12-29T15:16:18;6.68;;;3.55;;
17261;SDS011;9873;52.236;21.002;2023-12-29T15:26:21;8.45;;;3.22;;
17261;SDS011;9873;52.236;21.002;2023-12-29T15:36:26;7.13;;;3.35;;
17261;SDS011;9873;52.236;21.002;2023-12-29T15:46:33;4.93;;;2.83;;
17261;SDS011;9873;52.236;21.002;2023-12-29T15:56:35;5.90;;;3.55;;
17261;SDS011;9873;52.236;21.002;2023-12-29T16:06:39;7.82;;;4.00;;
17261;SDS011;9873;52.236;21.002;2023-12-29T16:16:45;6.95;;;4.20;;
17261;SDS011;9873;52.236;21.002;2023-12-29T16:26:50;4.82;;;3.70;;
17261;SDS011;9873;52.236;21.002;2023-12-29T16:36:56;12.93;;;4.23;;
17261;SDS011;9873;52.236;21.002;2023-12-29T16:46:59;7.65;;;4.57;;
17261;SDS011;9873;52.236;21.002;2023-12-29T16:57:04;7.50;;;4.70;;
17261;SDS011;9873;52.236;21.002;2023-12-29T17:07:09;7.50;;;4.05;;
17261;SDS011;9873;52.236;21.002;2023-12-29T17:17:15;7.60;;;4.50;;
17261;SDS011;9873;52.236;21.002;2023-12-29T17:27:20;9.70;;;4.93;;
17261;SDS011;9873;52.236;21.002;2023-12-29T17:37:22;8.88;;;4.70;;
17261;SDS011;9873;52.236;21.002;2023-12-29T17:47:30;6.90;;;4.00;;
17261;SDS011;9873;52.236;21.002;2023-12-29T17:57:39;5.90;;;4.30;;
17261;SDS011;9873;52.236;21.002;2023-12-29T18:07:45;7.18;;;3.15;;
17261;SDS011;9873;52.236;21.002;2023-12-29T18:17:48;5.30;;;3.38;;
17261;SDS011;9873;52.236;21.002;2023-12-29T18:27:59;12.07;;;7.85;;
17261;SDS011;9873;52.236;21.002;2023-12-29T18:38:02;4.50;;;3.15;;
17261;SDS011;9873;52.236;21.002;2023-12-29T18:48:06;8.88;;;3.72;;
17261;SDS011;9873;52.236;21.002;2023-12-29T18:58:10;7.22;;;3.75;;
17261;SDS011;9873;52.236;21.002;2023-12-29T19:08:16;6.32;;;4.20;;
17261;SDS011;9873;52.236;21.002;2023-12-29T19:18:21;9.20;;;4.28;;
17261;SDS011;9873;52.236;21.002;2023-12-29T19:28:23;6.75;;;3.88;;
17261;SDS011;9873;52.236;21.002;2023-12-29T19:38:30;4.72;;;3.17;;
17261;SDS011;9873;52.236;21.002;2023-12-29T19:48:35;6.30;;;3.58;;
17261;SDS011;9873;52.236;21.002;2023-12-29T19:58:45;6.37;;;3.50;;
17261;SDS011;9873;52.236;21.002;2023-12-29T20:08:48;5.95;;;3.63;;
17261;SDS011;9873;52.236;21.002;2023-12-29T20:18:52;7.70;;;3.60;;
17261;SDS011;9873;52.236;21.002;2023-12-29T20:28:55;4.93;;;3.20;;
17261;SDS011;9873;52.236;21.002;2023-12-29T20:39:02;7.78;;;3.28;;
17261;SDS011;9873;52.236;21.002;2023-12-29T20:49:10;5.05;;;3.50;;
17261;SDS011;9873;52.236;21.002;2023-12-29T20:59:15;5.75;;;3.45;;
17261;SDS011;9873;52.236;21.002;2023-12-29T21:09:18;5.18;;;2.97;;
17261;SDS011;9873;52.236;21.002;2023-12-29T21:19:27;5.93;;;3.80;;
17261;SDS011;9873;52.236;21.002;2023-12-29T21:29:30;5.88;;;3.45;;
17261;SDS011;9873;52.236;21.002;2023-12-29T21:39:35;5.82;;;3.35;;
17261;SDS011;9873;52.236;21.002;2023-12-29T21:49:40;6.60;;;3.50;;
17261;SDS011;9873;52.236;21.002;2023-12-29T21:59:42;4.93;;;3.20;;
17261;SDS011;9873;52.236;21.002;2023-12-29T22:09:49;7.10;;;3.38;;
17261;SDS011;9873;52.236;21.002;2023-12-29T22:19:51;7.20;;;2.97;;
17261;SDS011;9873;52.236;21.002;2023-12-29T22:30:02;4.85;;;3.40;;
17261;SDS011;9873;52.236;21.002;2023-12-29T22:40:08;5.57;;;3.08;;
17261;SDS011;9873;52.236;21.002;2023-12-29T22:50:16;8.07;;;3.50;;
17261;SDS011;9873;52.236;21.002;2023-12-29T23:00:20;8.40;;;3.70;;
17261;SDS011;9873;52.236;21.002;2023-12-29T23:10:26;6.38;;;3.50;;
17261;SDS011;9873;52.236;21.002;2023-12-29T23:20:31;6.25;;;3.90;;
17261;SDS011;9873;52.236;21.002;2023-12-29T23:30:34;5.18;;;3.40;;
17261;SDS011;9873;52.236;21.002;2023-12-29T23:40:40;5.15;;;3.22;;
17261;SDS011;9873;52.236;21.002;2023-12-29T23:50:47;7.80;;;3.72;;
